Time;durP1;ratioP1;P1;durP2;ratioP2;P2;SDS_P1;SDS_P2;PMS_P1;PMS_P2;Temp;Humidity;BMP_temperature;BMP_pressure;BME280_temperature;BME280_humidity;BME280_pressure;Samples;Min_cycle;Max_cycle;Signal;HPM_P1;HPM_P2
2021/07/17 00:00:24;;;;;;;11.57;10.48;;;;;;;25.31;61.50;100068.80;1786520;76;21067;-84
2021/07/17 00:02:53;;;;;;;12.85;11.30;;;;;;;25.30;61.59;100068.55;1769804;79;21131;-83
2021/07/17 00:05:26;;;;;;;17.42;11.70;;;;;;;25.26;61.69;100063.43;1776864;79;21476;-82
2021/07/17 00:08:00;;;;;;;17.15;12.25;;;;;;;25.22;61.65;100072.72;1787162;79;21036;-82
2021/07/17 00:10:47;;;;;;;18.73;12.13;;;;;;;25.21;61.56;100064.83;1766306;79;21025;-84
2021/07/17 00:13:22;;;;;;;22.10;12.90;;;;;;;25.17;61.82;100065.16;1746115;80;20994;-84
2021/07/17 00:16:06;;;;;;;15.05;11.43;;;;;;;25.13;62.05;100064.92;1722457;80;21082;-80
2021/07/17 00:18:47;;;;;;;21.60;13.90;;;;;;;25.13;62.16;100061.36;1724659;80;21001;-83
2021/07/17 00:21:24;;;;;;;21.62;14.60;;;;;;;25.12;61.84;100058.39;1731111;80;21547;-82
2021/07/17 00:24:16;;;;;;;23.10;14.95;;;;;;;24.83;62.27;100020.57;1724998;81;21049;-83
2021/07/17 00:27:18;;;;;;;;;;;;;;;;;;;;;
2021/07/17 00:29:50;;;;;;;18.50;13.88;;;;;;;24.95;62.53;100060.23;1637405;85;21218;-83
2021/07/17 00:32:22;;;;;;;15.63;13.45;;;;;;;24.94;61.77;100061.33;1694434;83;21025;-86
2021/07/17 00:35:03;;;;;;;24.18;16.95;;;;;;;25.12;60.32;100060.56;1737069;80;21008;-84
2021/07/17 00:37:30;;;;;;;18.55;16.67;;;;;;;24.76;61.28;99981.15;1717038;81;21002;-83
2021/07/17 00:39:56;;;;;;;18.92;16.93;;;;;;;25.16;61.76;100060.23;1708411;83;21014;-81
2021/07/17 00:42:30;;;;;;;18.42;15.30;;;;;;;25.01;62.21;100059.06;1757133;80;21800;-82
2021/07/17 00:44:56;;;;;;;18.20;14.38;;;;;;;24.93;62.46;100045.53;1740291;80;20993;-82
2021/07/17 00:47:23;;;;;;;19.70;14.58;;;;;;;24.91;62.72;100046.93;1724585;80;21009;-81
2021/07/17 00:49:52;;;;;;;20.48;15.40;;;;;;;24.87;62.78;100049.42;1733708;80;21075;-82
2021/07/17 00:52:18;;;;;;;19.40;13.72;;;;;;;24.84;63.07;100050.00;1718259;81;21055;-83
2021/07/17 00:55:00;;;;;;;22.62;15.53;;;;;;;24.79;63.23;100052.77;1681230;81;21549;-84
2021/07/17 00:57:47;;;;;;;16.67;13.43;;;;;;;24.76;63.33;100053.38;1708059;81;21104;-83
2021/07/17 01:00:24;;;;;;;16.00;13.35;;;;;;;24.80;63.22;100053.84;1631274;81;21136;-83
2021/07/17 01:06:50;;;;;;;15.15;13.22;;;;;;;24.82;63.03;100059.82;1651753;84;21114;-83
2021/07/17 01:09:30;;;;;;;17.00;12.63;;;;;;;24.66;63.58;100052.38;1706347;81;21010;-84
2021/07/17 01:12:20;;;;;;;17.02;13.08;;;;;;;24.57;63.71;100054.11;1700238;80;21085;-83
2021/07/17 01:14:52;;;;;;;12.78;11.50;;;;;;;24.57;64.03;100051.95;1632613;85;21107;-84
2021/07/17 01:17:29;;;;;;;15.00;13.40;;;;;;;24.61;63.92;100048.90;1645855;85;21828;-83
2021/07/17 01:19:55;;;;;;;16.93;12.15;;;;;;;24.61;63.92;100055.16;1634760;85;21009;-83
2021/07/17 01:22:43;;;;;;;15.28;12.68;;;;;;;24.56;64.13;100051.11;1651724;82;21639;-85
2021/07/17 01:25:33;;;;;;;16.23;12.20;;;;;;;24.51;64.18;100050.35;1626956;85;21034;-83
2021/07/17 01:28:18;;;;;;;21.07;12.43;;;;;;;24.48;64.25;100051.72;1633476;85;21191;-84
2021/07/17 01:31:00;;;;;;;16.90;12.75;;;;;;;24.44;64.42;100047.95;1608795;87;21077;-88
2021/07/17 01:33:26;;;;;;;13.03;11.60;;;;;;;24.41;64.49;100043.91;1659141;83;21064;-83
2021/07/17 01:36:08;;;;;;;13.72;11.35;;;;;;;24.42;64.47;100047.43;1696283;82;21028;-91
2021/07/17 01:38:36;;;;;;;14.50;11.70;;;;;;;24.39;64.24;100044.75;1652525;84;21086;-83
2021/07/17 01:41:03;;;;;;;18.62;12.50;;;;;;;24.41;63.80;100049.88;1664809;85;21196;-85
2021/07/17 01:43:29;;;;;;;12.95;11.68;;;;;;;24.46;64.12;100055.28;1665830;84;20983;-82
2021/07/17 01:46:00;;;;;;;16.67;12.03;;;;;;;24.43;64.33;100055.32;1667087;82;21058;-83
2021/07/17 01:48:29;;;;;;;16.90;11.70;;;;;;;24.37;64.51;100047.48;1653117;84;21212;-81
2021/07/17 01:50:57;;;;;;;12.93;11.25;;;;;;;24.35;64.58;100046.95;1699748;82;21186;-83
2021/07/17 01:53:28;;;;;;;12.35;11.08;;;;;;;24.34;64.62;100049.43;1673919;82;21610;-84
2021/07/17 01:55:54;;;;;;;16.50;12.07;;;;;;;24.31;64.29;100052.72;1663544;84;21011;-83
2021/07/17 01:58:45;;;;;;;16.87;11.65;;;;;;;24.36;63.38;100054.04;1652947;82;21075;-83
2021/07/17 02:01:20;;;;;;;20.80;13.18;;;;;;;24.44;63.13;100052.84;1645987;84;21046;-90
2021/07/17 02:03:49;;;;;;;18.17;12.55;;;;;;;24.54;62.95;100049.78;1689736;83;21680;-82
2021/07/17 02:06:39;;;;;;;14.83;12.30;;;;;;;24.53;63.51;100058.52;1665249;84;21047;-85
2021/07/17 02:09:23;;;;;;;16.02;11.85;;;;;;;24.49;63.78;100058.25;1658754;83;21049;-84
2021/07/17 02:11:50;;;;;;;14.38;11.63;;;;;;;24.40;62.92;100051.80;1652776;84;21044;-83
2021/07/17 02:14:16;;;;;;;18.10;12.37;;;;;;;24.47;61.16;100052.84;1692729;82;21153;-82
2021/07/17 02:16:47;;;;;;;16.73;13.43;;;;;;;24.61;60.73;100047.53;1698412;82;21090;-83
2021/07/17 02:19:26;;;;;;;18.90;12.43;;;;;;;24.75;61.81;100052.56;1699107;82;21030;-83
2021/07/17 02:21:54;;;;;;;17.52;11.57;;;;;;;24.77;62.46;100044.08;1689481;82;21134;-82
2021/07/17 02:24:21;;;;;;;15.75;12.18;;;;;;;24.68;62.00;100054.27;1669923;84;21015;-82
2021/07/17 02:26:49;;;;;;;14.15;12.20;;;;;;;24.68;60.51;100050.17;1677480;84;21087;-81
2021/07/17 02:29:21;;;;;;;18.80;13.80;;;;;;;24.78;60.73;100057.98;1667819;84;21090;-85
2021/07/17 02:31:49;;;;;;;20.08;13.58;;;;;;;24.80;61.36;100057.13;1632129;85;21112;-82
2021/07/17 02:34:16;;;;;;;22.52;13.15;;;;;;;24.74;62.41;100060.47;1640740;84;21056;-83
2021/07/17 02:36:42;;;;;;;19.65;12.78;;;;;;;24.64;62.87;100056.50;1661144;84;21089;-83
2021/07/17 02:39:10;;;;;;;19.07;12.47;;;;;;;24.56;63.30;100056.56;1664094;84;22904;-83
2021/07/17 02:41:37;;;;;;;19.45;12.43;;;;;;;24.52;63.88;100056.08;1676401;84;21088;-81
2021/07/17 02:44:05;;;;;;;19.00;13.78;;;;;;;24.45;64.23;100049.03;1673425;84;21039;-82
2021/07/17 02:46:31;;;;;;;19.32;12.80;;;;;;;24.47;64.47;100055.00;1671726;84;21499;-82
2021/07/17 02:48:57;;;;;;;17.80;14.18;;;;;;;24.52;64.40;100051.43;1679333;84;21086;-82
2021/07/17 02:51:27;;;;;;;22.80;13.32;;;;;;;24.63;64.16;100052.95;1670779;84;21096;-83
2021/07/17 02:53:54;;;;;;;15.60;13.88;;;;;;;24.76;63.80;100054.17;1666803;84;21656;-82
2021/07/17 02:56:20;;;;;;;18.50;14.05;;;;;;;24.81;63.83;100053.32;1672741;84;21126;-81
2021/07/17 02:58:46;;;;;;;20.00;14.90;;;;;;;24.82;63.89;100060.38;1675462;84;21060;-81
2021/07/17 03:01:13;;;;;;;24.07;14.87;;;;;;;24.90;64.06;100061.09;1679605;84;21095;-84
2021/07/17 03:03:42;;;;;;;21.87;15.13;;;;;;;25.15;63.73;100061.91;1684090;84;21024;-83
2021/07/17 03:06:07;;;;;;;21.90;15.80;;;;;;;25.53;62.75;100056.51;1675863;84;21066;-85
2021/07/17 03:08:33;;;;;;;18.73;15.45;;;;;;;25.94;61.69;100050.45;1670490;84;21129;-84
2021/07/17 03:11:01;;;;;;;25.02;13.88;;;;;;;26.25;60.53;100047.20;1675060;84;21548;-83
2021/07/17 03:13:29;;;;;;;23.42;16.50;;;;;;;26.52;59.90;100052.72;1675233;83;21171;-85
2021/07/17 03:15:57;;;;;;;16.00;14.25;;;;;;;26.83;59.00;100048.05;1662543;84;21091;-84
2021/07/17 03:18:23;;;;;;;18.85;14.35;;;;;;;27.18;58.26;100047.03;1662882;84;21687;-83
2021/07/17 03:20:50;;;;;;;38.05;20.23;;;;;;;27.48;57.53;100043.40;1669431;84;21090;-82
2021/07/17 03:23:16;;;;;;;42.58;20.82;;;;;;;27.77;56.35;100041.06;1673428;84;21797;-82
2021/07/17 03:25:42;;;;;;;38.05;20.77;;;;;;;28.06;55.35;100047.25;1679489;84;21027;-84
2021/07/17 03:28:09;;;;;;;30.23;16.07;;;;;;;28.32;54.55;100042.72;1678692;84;21113;-84
2021/07/17 03:30:35;;;;;;;24.60;14.63;;;;;;;28.58;53.40;100042.08;1664177;84;21142;-84
2021/07/17 03:33:02;;;;;;;23.10;13.62;;;;;;;28.81;52.68;100044.73;1641323;86;21853;-83
2021/07/17 03:35:28;;;;;;;15.58;13.43;;;;;;;29.06;52.15;100048.67;1628524;86;21145;-83
2021/07/17 03:37:55;;;;;;;13.88;12.45;;;;;;;29.32;51.37;100051.48;1623975;86;21083;-85
2021/07/17 03:40:21;;;;;;;21.70;13.08;;;;;;;29.51;50.86;100044.31;1623534;86;21099;-83
2021/07/17 03:42:48;;;;;;;14.28;12.05;;;;;;;29.64;50.81;100033.73;1621995;86;21066;-82
2021/07/17 03:45:14;;;;;;;13.18;11.85;;;;;;;29.77;50.65;100036.67;1621673;85;21109;-83
2021/07/17 03:47:40;;;;;;;14.00;12.47;;;;;;;29.91;49.95;100030.98;1617708;87;22245;-83
2021/07/17 03:50:09;;;;;;;13.22;11.90;;;;;;;29.96;50.01;100032.20;1627076;86;21391;-84
2021/07/17 03:52:38;;;;;;;14.55;12.73;;;;;;;30.03;49.91;100030.56;1600584;88;21073;-84
2021/07/17 03:55:06;;;;;;;13.50;11.95;;;;;;;29.91;49.91;100008.43;1597704;88;21128;-82
2021/07/17 03:57:32;;;;;;;16.23;13.38;;;;;;;30.12;49.93;100029.72;1622727;86;21126;-83
2021/07/17 03:59:58;;;;;;;13.88;12.15;;;;;;;30.18;49.65;100029.81;1631301;86;21064;-85
2021/07/17 04:02:26;;;;;;;13.88;11.55;;;;;;;30.29;49.52;100026.95;1620216;87;21091;-83
2021/07/17 04:04:54;;;;;;;14.55;11.63;;;;;;;30.50;49.27;100022.92;1630774;86;21084;-83
2021/07/17 04:07:20;;;;;;;11.28;10.23;;;;;;;30.79;48.66;100026.83;1632035;85;21070;-84
2021/07/17 04:09:48;;;;;;;11.43;10.30;;;;;;;31.03;47.76;100034.48;1617838;86;21163;-83
2021/07/17 04:12:15;;;;;;;11.68;10.68;;;;;;;31.21;47.62;100035.16;1623778;87;21186;-85
2021/07/17 04:14:41;;;;;;;10.38;9.48;;;;;;;31.37;46.95;100036.19;1600960;88;21097;-84
2021/07/17 04:17:11;;;;;;;11.63;10.53;;;;;;;31.50;46.52;100028.83;1631445;86;21062;-88
2021/07/17 04:19:45;;;;;;;13.53;10.60;;;;;;;31.58;46.42;100035.41;1605792;88;21569;-86
2021/07/17 04:22:12;;;;;;;12.45;11.28;;;;;;;31.59;46.32;100037.00;1630781;86;21126;-85
2021/07/17 04:24:38;;;;;;;13.88;12.23;;;;;;;31.66;46.14;100040.59;1657306;85;21039;-86
2021/07/17 04:27:04;;;;;;;14.75;12.53;;;;;;;31.80;45.78;100044.68;1647111;85;21001;-84
2021/07/17 04:29:35;;;;;;;12.47;11.20;;;;;;;31.84;45.80;100044.81;1647543;85;21082;-85
2021/07/17 04:32:01;;;;;;;13.75;11.80;;;;;;;31.80;45.72;100038.38;1651336;85;21543;-85
2021/07/17 04:34:27;;;;;;;12.33;10.53;;;;;;;31.79;46.09;100043.64;1645309;85;21181;-85
2021/07/17 04:36:58;;;;;;;9.40;8.50;;;;;;;31.91;44.76;100040.94;1646996;85;21066;-92
2021/07/17 04:39:30;;;;;;;8.58;7.85;;;;;;;31.98;44.06;100043.13;1641084;85;21139;-88
2021/07/17 04:42:02;;;;;;;8.18;7.37;;;;;;;31.96;43.62;100040.70;1650220;85;21083;-90
2021/07/17 04:44:29;;;;;;;8.90;8.10;;;;;;;32.10;43.06;100039.62;1643880;84;21112;-87
2021/07/17 04:46:56;;;;;;;7.35;6.70;;;;;;;32.24;42.69;100033.81;1667077;84;21463;-88
2021/07/17 04:49:25;;;;;;;9.75;8.05;;;;;;;32.35;42.87;100035.77;1663517;84;21030;-88
2021/07/17 04:51:51;;;;;;;7.72;6.87;;;;;;;32.40;42.81;100038.31;1657512;84;21070;-87
2021/07/17 04:54:31;;;;;;;12.60;7.15;;;;;;;32.45;42.42;100036.48;1665486;84;21713;-89
2021/07/17 04:57:06;;;;;;;8.18;7.25;;;;;;;32.59;42.08;100038.36;1677654;83;21636;-87
2021/07/17 04:59:33;;;;;;;11.97;6.75;;;;;;;32.63;42.35;100040.66;1680185;83;21106;-85
2021/07/17 05:02:00;;;;;;;8.30;7.12;;;;;;;32.76;42.74;100045.03;1666252;83;21824;-83
2021/07/17 05:04:28;;;;;;;8.23;6.83;;;;;;;32.96;41.73;100039.71;1648679;85;21075;-86
2021/07/17 05:06:54;;;;;;;9.70;7.12;;;;;;;33.09;41.10;100049.58;1642605;85;21069;-84
2021/07/17 05:09:23;;;;;;;8.83;7.62;;;;;;;33.18;41.25;100041.21;1648334;85;21041;-84
2021/07/17 05:11:49;;;;;;;8.23;7.12;;;;;;;33.26;40.84;100043.61;1613484;87;21102;-84
2021/07/17 05:14:15;;;;;;;6.67;6.17;;;;;;;33.08;40.38;100049.95;1598198;87;21035;-83
2021/07/17 05:16:42;;;;;;;7.25;6.78;;;;;;;32.65;41.21;100043.87;1611494;87;21734;-84
2021/07/17 05:19:09;;;;;;;7.85;7.10;;;;;;;32.10;42.13;100052.85;1598398;88;21097;-84
2021/07/17 05:21:36;;;;;;;7.45;6.53;;;;;;;31.62;42.86;100053.66;1595674;88;21160;-82
2021/07/17 05:24:05;;;;;;;12.73;6.65;;;;;;;31.25;43.71;100051.27;1602959;87;21054;-84
2021/07/17 05:26:37;;;;;;;9.80;6.55;;;;;;;30.99;44.49;100045.94;1644127;85;21582;-82
2021/07/17 05:29:03;;;;;;;6.60;6.03;;;;;;;30.95;44.53;100054.59;1640168;86;21030;-83
2021/07/17 05:31:33;;;;;;;5.75;5.25;;;;;;;31.11;43.92;100049.33;1635857;85;21753;-83
2021/07/17 05:34:00;;;;;;;7.08;6.50;;;;;;;31.25;43.67;100052.65;1628324;85;21082;-84
2021/07/17 05:36:32;;;;;;;7.33;6.53;;;;;;;31.50;43.72;100049.48;1622427;86;21668;-83
2021/07/17 05:39:01;;;;;;;6.40;5.80;;;;;;;31.77;42.28;100048.68;1619695;86;21070;-88
2021/07/17 05:41:39;;;;;;;5.00;4.70;;;;;;;31.99;41.93;100054.40;1608316;85;21354;-84
2021/07/17 05:44:09;;;;;;;9.33;5.75;;;;;;;32.15;41.73;100055.95;1650759;85;21724;-84
2021/07/17 05:46:37;;;;;;;5.30;4.80;;;;;;;32.22;40.92;100052.65;1666273;84;21726;-84
2021/07/17 05:49:03;;;;;;;9.95;5.95;;;;;;;32.25;41.28;100056.91;1665535;84;21167;-82
2021/07/17 05:51:30;;;;;;;5.85;5.08;;;;;;;32.41;40.45;100054.28;1667850;84;21543;-84
2021/07/17 05:53:56;;;;;;;7.55;5.58;;;;;;;32.44;39.98;100054.98;1668702;84;21063;-82
2021/07/17 05:56:22;;;;;;;5.70;5.20;;;;;;;32.49;39.89;100060.84;1683862;83;21090;-83
2021/07/17 05:58:53;;;;;;;4.72;4.30;;;;;;;32.23;39.75;99991.66;1692864;84;21050;-85
2021/07/17 06:01:22;;;;;;;5.10;4.80;;;;;;;32.77;39.14;100059.62;1684885;83;21032;-87
2021/07/17 06:03:54;;;;;;;7.15;5.58;;;;;;;32.73;39.01;100065.02;1693922;84;21030;-84
2021/07/17 06:06:20;;;;;;;5.72;5.33;;;;;;;32.76;39.52;100066.30;1696500;83;20995;-83
2021/07/17 06:09:16;;;;;;;6.10;5.70;;;;;;;32.97;39.35;100071.12;1692316;84;21102;-85
2021/07/17 06:11:44;;;;;;;7.03;6.40;;;;;;;33.26;39.32;100061.56;1697398;83;21058;-84
2021/07/17 06:14:10;;;;;;;6.03;5.50;;;;;;;33.49;38.80;100062.66;1672726;84;21073;-86
2021/07/17 06:16:41;;;;;;;7.28;6.47;;;;;;;33.40;39.29;100063.93;1695250;83;21034;-86
2021/07/17 06:19:09;;;;;;;7.42;6.72;;;;;;;33.35;38.22;100061.64;1688494;84;21121;-83
2021/07/17 06:21:47;;;;;;;7.65;6.78;;;;;;;33.20;39.18;100064.34;1695573;84;21154;-85
2021/07/17 06:24:23;;;;;;;10.28;7.37;;;;;;;33.09;39.80;100062.59;1679887;84;21075;-84
2021/07/17 06:27:09;;;;;;;6.37;5.78;;;;;;;33.28;39.29;100064.19;1633340;86;21074;-86
2021/07/17 06:29:35;;;;;;;8.50;7.85;;;;;;;33.42;37.58;100059.69;1671948;85;21118;-87
2021/07/17 06:32:04;;;;;;;7.55;6.92;;;;;;;33.33;38.93;100053.49;1651990;85;21198;-85
2021/07/17 06:34:31;;;;;;;8.83;6.37;;;;;;;33.20;39.18;100053.30;1631946;85;21170;-84
2021/07/17 06:37:01;;;;;;;6.75;5.37;;;;;;;33.13;39.68;100050.55;1683016;84;21020;-84
2021/07/17 06:39:30;;;;;;;6.40;5.97;;;;;;;33.21;38.26;100059.03;1662675;84;21068;-87
2021/07/17 06:41:58;;;;;;;6.50;5.97;;;;;;;33.21;38.37;100051.57;1667963;85;21116;-85
2021/07/17 06:44:24;;;;;;;5.35;4.97;;;;;;;33.23;38.40;100049.81;1668208;85;21115;-84
2021/07/17 06:46:56;;;;;;;5.50;4.92;;;;;;;33.44;38.74;100049.09;1662544;85;21880;-88
2021/07/17 06:49:23;;;;;;;5.45;5.15;;;;;;;33.25;37.80;99949.50;1665997;85;21209;-83
2021/07/17 06:51:52;;;;;;;9.38;6.05;;;;;;;34.18;36.89;100047.42;1681103;85;21020;-87
2021/07/17 06:54:20;;;;;;;6.67;4.75;;;;;;;34.17;36.72;100040.86;1633520;86;21094;-83
2021/07/17 06:56:47;;;;;;;4.53;4.15;;;;;;;34.11;37.29;100046.64;1670835;84;21077;-85
2021/07/17 06:59:15;;;;;;;4.87;4.58;;;;;;;34.24;36.09;100038.28;1665224;85;21057;-88
2021/07/17 07:01:53;;;;;;;5.30;4.90;;;;;;;34.17;36.08;100037.53;1642208;85;21093;-86
2021/07/17 07:04:19;;;;;;;7.63;4.67;;;;;;;34.07;35.81;100046.30;1658183;85;21101;-83
2021/07/17 07:06:52;;;;;;;5.92;5.45;;;;;;;33.81;35.91;100045.40;1670640;84;21353;-83
2021/07/17 07:09:28;;;;;;;5.40;4.85;;;;;;;33.70;36.00;100039.56;1634424;87;21079;-83
2021/07/17 07:11:55;;;;;;;5.62;5.12;;;;;;;33.42;36.97;99996.70;1631012;87;21153;-84
2021/07/17 07:14:22;;;;;;;8.43;4.08;;;;;;;32.99;36.04;99917.56;1635401;86;21051;-85
2021/07/17 07:16:49;;;;;;;8.05;4.67;;;;;;;33.62;36.22;100041.88;1624202;88;21169;-84
2021/07/17 07:19:15;;;;;;;7.28;4.40;;;;;;;33.63;36.67;100033.83;1645970;87;21059;-85
2021/07/17 07:21:41;;;;;;;4.67;4.30;;;;;;;33.66;36.13;100037.28;1631926;87;21067;-85
2021/07/17 07:24:12;;;;;;;7.33;4.92;;;;;;;33.59;36.40;100037.88;1654819;85;21058;-83
2021/07/17 07:26:41;;;;;;;5.47;4.37;;;;;;;33.62;36.64;100044.64;1674454;83;21143;-84
2021/07/17 07:29:24;;;;;;;;;;;;;;;;;;;;;
2021/07/17 07:31:47;;;;;;;4.80;4.35;;;;;;;33.37;36.21;99959.10;1656306;85;21480;-82
2021/07/17 07:34:13;;;;;;;5.15;4.75;;;;;;;33.91;35.41;100045.70;1676095;83;21174;-88
2021/07/17 07:36:39;;;;;;;7.33;4.78;;;;;;;33.84;35.74;100037.21;1679641;83;21007;-84
2021/07/17 07:39:06;;;;;;;5.75;4.10;;;;;;;32.93;36.00;99917.59;1679175;83;21175;-82
2021/07/17 07:41:35;;;;;;;8.28;3.95;;;;;;;33.65;35.73;100038.46;1664602;84;21085;-85
2021/07/17 07:44:01;;;;;;;5.97;4.45;;;;;;;33.63;35.72;100043.50;1634947;87;21563;-83
2021/07/17 07:46:34;;;;;;;8.88;4.85;;;;;;;33.52;35.55;100043.98;1640554;86;21030;-84
2021/07/17 07:49:05;;;;;;;6.37;3.65;;;;;;;33.40;36.15;100033.55;1655611;84;22295;-84
2021/07/17 07:51:33;;;;;;;4.17;3.83;;;;;;;33.36;36.09;100034.82;1647923;86;21113;-83
2021/07/17 07:54:05;;;;;;;4.33;4.03;;;;;;;33.39;35.83;100036.09;1662863;86;21614;-84
2021/07/17 07:56:32;;;;;;;3.95;3.58;;;;;;;33.24;36.18;100037.05;1636671;84;21083;-83
2021/07/17 07:58:58;;;;;;;3.70;3.50;;;;;;;33.22;36.01;100036.59;1641207;86;21096;-83
2021/07/17 08:01:25;;;;;;;6.05;3.77;;;;;;;33.25;36.07;100029.59;1672406;83;21066;-83
2021/07/17 08:03:52;;;;;;;4.00;3.50;;;;;;;33.27;35.97;100034.19;1680293;85;21050;-82
2021/07/17 08:06:21;;;;;;;4.37;3.50;;;;;;;33.32;36.12;100038.89;1646121;85;21361;-82
2021/07/17 08:08:47;;;;;;;6.58;4.15;;;;;;;32.56;35.67;99912.91;1681557;85;21125;-83
2021/07/17 08:11:17;;;;;;;4.08;3.35;;;;;;;33.35;35.71;100035.99;1689247;83;21085;-91
2021/07/17 08:16:32;;;;;;;;;;;;;;;33.38;35.62;100038.62;1666515;83;21072;-89
2021/07/17 08:18:58;;;;;;;;;;;;;;;33.30;35.41;100041.16;1684222;83;20152;-88
2021/07/17 08:21:24;;;;;;;7.25;3.85;;;;;;;33.13;35.33;100034.55;1672456;83;20170;-86
2021/07/17 08:23:53;;;;;;;4.50;4.08;;;;;;;32.95;35.61;100032.02;1677649;85;21585;-88
2021/07/17 08:26:19;;;;;;;6.37;3.47;;;;;;;32.89;36.09;100025.69;1673103;83;21034;-89
2021/07/17 08:28:45;;;;;;;3.12;2.92;;;;;;;32.92;35.54;100025.00;1673695;83;21779;-89
2021/07/17 08:31:12;;;;;;;3.67;3.22;;;;;;;32.96;35.60;100021.22;1670771;83;21295;-89
2021/07/17 08:33:38;;;;;;;3.50;3.30;;;;;;;33.01;35.89;100024.30;1685418;84;21026;-89
2021/07/17 08:36:06;;;;;;;3.77;3.45;;;;;;;33.08;35.96;100025.91;1663681;83;21578;-88
2021/07/17 08:38:32;;;;;;;3.83;3.55;;;;;;;33.08;35.96;100025.91;1666554;84;21119;-90
2021/07/17 08:40:58;;;;;;;3.98;3.77;;;;;;;33.11;35.91;100020.28;1678729;84;21047;-91
2021/07/17 08:43:28;;;;;;;4.67;3.50;;;;;;;33.11;35.83;100016.14;1662388;85;21096;-90
2021/07/17 08:45:57;;;;;;;5.37;3.37;;;;;;;33.15;35.39;100004.62;1665840;85;21075;-91
2021/07/17 08:48:23;;;;;;;3.75;3.55;;;;;;;33.14;35.47;100013.48;1656291;85;21068;-91
2021/07/17 08:50:55;;;;;;;4.97;3.60;;;;;;;33.11;35.88;100010.03;1661543;85;22250;-91
2021/07/17 08:53:23;;;;;;;3.83;3.62;;;;;;;33.11;35.97;100017.52;1669327;85;21165;-90
2021/07/17 08:55:49;;;;;;;6.05;3.75;;;;;;;33.11;35.83;100012.00;1624109;87;21143;-88
2021/07/17 08:58:15;;;;;;;14.35;4.33;;;;;;;33.14;35.72;100004.41;1675713;85;21102;-89
2021/07/17 09:00:44;;;;;;;6.47;4.12;;;;;;;32.98;35.76;99968.39;1661790;85;21038;-88
2021/07/17 09:03:17;;;;;;;18.05;5.45;;;;;;;33.26;35.27;99995.28;1631447;86;21048;-90
2021/07/17 09:05:48;;;;;;;18.23;4.58;;;;;;;33.28;34.98;100002.64;1628690;86;21337;-90
2021/07/17 09:08:20;;;;;;;31.82;5.90;;;;;;;33.20;34.94;100002.20;1627722;86;21566;-91
2021/07/17 09:11:06;;;;;;;18.87;4.50;;;;;;;33.19;35.22;100007.48;1622405;86;21132;-92
2021/07/17 09:13:37;;;;;;;5.70;4.08;;;;;;;33.26;35.22;100000.22;1605562;86;21081;-89
2021/07/17 09:16:13;;;;;;;6.42;3.33;;;;;;;33.31;35.41;100003.33;1617663;87;21577;-90
2021/07/17 09:18:49;;;;;;;;;;;;;;;33.35;35.36;100001.47;1628875;86;21550;-89
2021/07/17 09:21:37;;;;;;;6.17;5.60;;;;;;;33.39;35.40;100007.09;1617723;86;20184;-89
2021/07/17 09:24:13;;;;;;;3.83;3.62;;;;;;;33.29;35.37;100007.02;1629284;86;21614;-88
2021/07/17 09:26:52;;;;;;;4.83;3.92;;;;;;;33.16;35.60;99992.44;1613583;86;21161;-90
2021/07/17 09:29:18;;;;;;;8.23;3.60;;;;;;;33.09;35.49;99999.89;1620042;86;21062;-91
2021/07/17 09:31:53;;;;;;;3.70;3.50;;;;;;;33.05;35.55;99992.66;1627913;86;21205;-89
2021/07/17 09:34:25;;;;;;;4.65;4.35;;;;;;;33.06;35.79;99997.02;1623431;86;21055;-90
2021/07/17 09:37:03;;;;;;;3.65;3.45;;;;;;;33.06;35.67;99992.32;1620190;86;21163;-89
2021/07/17 09:39:47;;;;;;;3.83;3.62;;;;;;;33.08;35.74;99993.36;1614497;86;21101;-90
2021/07/17 09:42:23;;;;;;;5.50;3.62;;;;;;;33.20;35.55;99991.16;1596338;87;21605;-87
2021/07/17 09:44:52;;;;;;;5.05;3.65;;;;;;;33.28;35.33;99986.06;1623701;85;21060;-89
2021/07/17 09:47:26;;;;;;;3.98;3.67;;;;;;;33.36;35.11;99993.39;1630270;86;21070;-89
2021/07/17 09:50:15;;;;;;;4.08;3.77;;;;;;;33.41;34.90;99984.06;1631106;86;21121;-89
2021/07/17 09:52:45;;;;;;;3.92;3.65;;;;;;;33.47;35.10;99989.56;1622842;86;21065;-89
2021/07/17 09:55:16;;;;;;;4.30;4.00;;;;;;;33.50;34.82;99984.14;1630326;86;21104;-89
2021/07/17 09:57:43;;;;;;;4.40;4.10;;;;;;;33.51;34.81;99981.61;1650264;85;21149;-91
2021/07/17 10:00:24;;;;;;;4.42;4.03;;;;;;;33.57;34.97;99969.73;1612272;86;21075;-89
2021/07/17 10:02:51;;;;;;;4.10;3.75;;;;;;;33.63;34.64;99972.45;1632114;86;21051;-91
2021/07/17 10:05:19;;;;;;;7.42;3.50;;;;;;;33.59;34.32;99965.20;1659926;85;20978;-90
2021/07/17 10:07:46;;;;;;;3.92;3.65;;;;;;;33.56;34.69;99963.97;1652437;85;21032;-91
2021/07/17 10:10:14;;;;;;;4.87;4.40;;;;;;;33.58;34.66;99961.66;1665827;83;21056;-88
2021/07/17 10:12:43;;;;;;;4.22;3.92;;;;;;;33.65;34.54;99956.94;1654981;85;21535;-90
2021/07/17 10:15:15;;;;;;;6.70;4.12;;;;;;;33.72;34.64;99952.99;1659409;85;21364;-90
2021/07/17 10:17:45;;;;;;;5.40;3.83;;;;;;;33.79;34.65;99957.89;1652303;85;21060;-90
2021/07/17 10:20:15;;;;;;;3.85;3.55;;;;;;;33.86;34.53;99947.02;1660668;85;21005;-90
2021/07/17 10:22:44;;;;;;;4.53;4.10;;;;;;;33.94;34.49;99946.03;1650693;85;21475;-90
2021/07/17 10:25:13;;;;;;;3.87;3.75;;;;;;;33.97;34.13;99943.16;1654474;85;21674;-89
2021/07/17 10:27:40;;;;;;;3.77;3.58;;;;;;;33.98;34.12;99941.98;1659221;85;20989;-89
2021/07/17 10:30:10;;;;;;;5.85;3.90;;;;;;;34.04;34.22;99937.78;1635112;86;21013;-88
2021/07/17 10:32:36;;;;;;;3.80;3.58;;;;;;;34.02;34.07;99929.88;1665008;85;21242;-90
2021/07/17 10:35:04;;;;;;;4.30;2.92;;;;;;;33.98;34.09;99929.55;1653915;85;21092;-91
2021/07/17 10:37:36;;;;;;;5.40;3.80;;;;;;;33.93;34.04;99923.13;1661518;85;21066;-88
2021/07/17 10:40:13;;;;;;;4.83;3.65;;;;;;;33.89;34.21;99926.39;1650859;85;21097;-90
2021/07/17 10:42:53;;;;;;;5.28;3.83;;;;;;;33.87;34.18;99933.41;1660357;85;21099;-90
2021/07/17 10:45:38;;;;;;;4.10;3.77;;;;;;;33.79;34.01;99921.38;1627357;86;21160;-91
2021/07/17 10:48:27;;;;;;;3.92;3.62;;;;;;;33.76;34.21;99920.72;1653116;85;21142;-90
2021/07/17 10:51:03;;;;;;;4.15;3.95;;;;;;;33.84;34.04;99910.06;1657568;86;21015;-91
2021/07/17 10:53:49;;;;;;;4.20;3.90;;;;;;;33.90;33.81;99904.48;1659671;85;21045;-91
2021/07/17 10:56:34;;;;;;;4.65;3.62;;;;;;;33.98;33.52;99912.95;1674982;85;20976;-91
2021/07/17 10:59:11;;;;;;;5.97;4.35;;;;;;;34.02;33.62;99895.87;1662323;84;21127;-89
2021/07/17 11:02:02;;;;;;;4.00;3.70;;;;;;;34.03;33.33;99902.43;1635919;85;21587;-89
2021/07/17 11:04:45;;;;;;;3.80;3.50;;;;;;;34.04;33.57;99906.81;1624426;87;21327;-89
2021/07/17 11:07:23;;;;;;;3.83;3.55;;;;;;;34.10;33.23;99894.91;1669071;84;21119;-92
2021/07/17 11:09:57;;;;;;;4.55;4.35;;;;;;;34.13;33.27;99883.93;1648875;85;21075;-90
2021/07/17 11:12:38;;;;;;;4.22;3.90;;;;;;;34.21;32.95;99884.11;1649026;85;21091;-91
2021/07/17 11:15:18;;;;;;;10.13;3.98;;;;;;;34.21;32.96;99873.86;1660352;84;21598;-89
2021/07/17 11:17:54;;;;;;;4.85;3.90;;;;;;;34.20;32.98;99872.84;1622986;87;21195;-90
2021/07/17 11:20:35;;;;;;;5.58;4.03;;;;;;;34.17;32.94;99875.75;1664231;84;21100;-88
2021/07/17 11:23:17;;;;;;;4.72;3.83;;;;;;;34.12;32.99;99874.60;1604487;86;21176;-89
2021/07/17 11:26:00;;;;;;;4.65;4.35;;;;;;;33.98;33.16;99881.16;1658217;85;21089;-88
2021/07/17 11:28:57;;;;;;;5.80;4.42;;;;;;;33.69;33.90;99872.17;1626278;87;21091;-88
2021/07/17 11:31:39;;;;;;;6.00;4.85;;;;;;;33.44;34.49;99879.20;1658810;85;21138;-91
2021/07/17 11:34:23;;;;;;;8.90;4.28;;;;;;;33.25;35.16;99888.75;1664362;84;21027;-88
2021/07/17 11:36:58;;;;;;;5.73;4.17;;;;;;;33.06;36.09;99894.31;1673810;84;21117;-86
2021/07/17 11:39:30;;;;;;;4.75;3.45;;;;;;;32.77;36.33;99897.60;1686910;83;22840;-89
2021/07/17 11:41:58;;;;;;;4.20;4.00;;;;;;;32.54;36.22;99887.63;1684440;83;21565;-91
2021/07/17 11:44:35;;;;;;;4.45;4.25;;;;;;;32.46;36.33;99881.67;1685548;83;21066;-91
2021/07/17 11:47:09;;;;;;;3.95;3.75;;;;;;;32.51;36.21;99873.72;1681569;83;22413;-89
2021/07/17 11:49:40;;;;;;;10.00;5.12;;;;;;;32.58;35.98;99873.39;1685600;83;21156;-92